createdAt,value
2023-05-20T00:00:14.551Z,23.46
2023-05-20T00:02:41.269Z,23.43
2023-05-20T00:05:07.960Z,23.46
2023-05-20T00:07:34.558Z,23.47
2023-05-20T00:10:01.210Z,23.47
2023-05-20T00:12:27.790Z,23.37
2023-05-20T00:14:55.886Z,23.46
2023-05-20T00:17:22.730Z,23.33
2023-05-20T00:19:49.317Z,23.47
2023-05-20T00:22:15.998Z,23.43
2023-05-20T00:24:42.571Z,23.37
2023-05-20T00:27:09.149Z,23.32
2023-05-20T00:29:35.749Z,23.39
2023-05-20T00:32:02.423Z,23.32
2023-05-20T00:34:28.983Z,23.28
2023-05-20T00:36:55.597Z,23.36
2023-05-20T00:39:22.191Z,23.41
2023-05-20T00:41:48.858Z,23.36
2023-05-20T00:44:15.457Z,23.43
2023-05-20T00:46:42.035Z,23.43
2023-05-20T00:49:09.931Z,23.45
2023-05-20T00:51:36.579Z,23.35
2023-05-20T00:54:03.169Z,23.31
2023-05-20T00:56:29.696Z,23.39
2023-05-20T00:58:56.299Z,23.36
2023-05-20T01:01:22.940Z,23.28
2023-05-20T01:03:49.624Z,23.33
2023-05-20T01:06:16.270Z,23.36
2023-05-20T01:08:42.926Z,23.32
2023-05-20T01:11:09.510Z,23.26
2023-05-20T01:13:36.055Z,23.38
2023-05-20T01:16:02.691Z,23.40
2023-05-20T01:18:29.242Z,23.35
2023-05-20T01:20:55.813Z,23.37
2023-05-20T01:23:22.346Z,23.34
2023-05-20T01:25:48.873Z,23.44
2023-05-20T01:28:15.481Z,23.44
2023-05-20T01:30:42.191Z,23.44
2023-05-20T01:33:09.035Z,23.44
2023-05-20T01:35:35.986Z,23.39
2023-05-20T01:38:02.824Z,23.44
2023-05-20T01:40:29.407Z,23.37
2023-05-20T01:42:56.002Z,23.38
2023-05-20T01:45:22.576Z,23.42
2023-05-20T01:47:49.097Z,23.44
2023-05-20T01:50:15.686Z,23.38
2023-05-20T01:52:42.203Z,23.44
2023-05-20T01:55:08.793Z,23.39
2023-05-20T01:57:35.309Z,23.45
2023-05-20T02:00:01.848Z,23.40
2023-05-20T02:02:28.558Z,23.45
2023-05-20T02:04:55.166Z,23.35
2023-05-20T02:07:21.795Z,23.38
2023-05-20T02:09:48.358Z,23.36
2023-05-20T02:12:14.947Z,23.32
2023-05-20T02:14:41.600Z,23.35
2023-05-20T02:17:08.193Z,23.31
2023-05-20T02:19:34.753Z,23.32
2023-05-20T02:22:01.357Z,23.34
2023-05-20T02:24:27.988Z,23.39
2023-05-20T02:26:54.586Z,23.34
2023-05-20T02:29:21.194Z,23.42
2023-05-20T02:31:47.768Z,23.34
2023-05-20T02:34:14.333Z,23.30
2023-05-20T02:36:40.920Z,23.35
2023-05-20T02:39:07.516Z,23.28
2023-05-20T02:41:36.016Z,23.30
2023-05-20T02:44:02.577Z,23.31
2023-05-20T02:46:29.207Z,23.19
2023-05-20T02:48:55.889Z,23.19
2023-05-20T02:51:22.372Z,23.24
2023-05-20T02:53:48.926Z,23.28
2023-05-20T02:56:15.518Z,23.21
2023-05-20T02:58:42.088Z,23.14
2023-05-20T03:01:08.677Z,23.23
2023-05-20T03:03:35.280Z,23.21
2023-05-20T03:06:01.858Z,23.28
2023-05-20T03:08:28.448Z,23.26
2023-05-20T03:10:55.032Z,23.26
2023-05-20T03:13:21.545Z,23.20
2023-05-20T03:15:48.186Z,23.16
2023-05-20T03:18:14.799Z,23.21
2023-05-20T03:20:41.337Z,23.21
2023-05-20T03:23:08.035Z,23.24
2023-05-20T03:25:34.797Z,23.34
2023-05-20T03:28:01.659Z,23.32
2023-05-20T03:30:28.181Z,23.32
2023-05-20T03:32:54.832Z,23.34
2023-05-20T03:35:21.429Z,23.30
2023-05-20T03:37:48.047Z,23.33
2023-05-20T03:40:14.584Z,23.34
2023-05-20T03:42:41.203Z,23.24
2023-05-20T03:45:07.728Z,23.23
2023-05-20T03:47:34.311Z,23.29
2023-05-20T03:50:00.894Z,23.29
2023-05-20T03:52:27.510Z,23.35
2023-05-20T03:54:54.028Z,23.37
2023-05-20T03:57:20.525Z,23.33
2023-05-20T03:59:47.120Z,23.31
2023-05-20T04:02:13.814Z,23.28
2023-05-20T04:04:40.379Z,23.22
2023-05-20T04:07:07.038Z,23.32
2023-05-20T04:09:33.574Z,23.25
2023-05-20T04:12:00.167Z,23.27
2023-05-20T04:14:26.809Z,23.19
2023-05-20T04:16:53.393Z,23.20
2023-05-20T04:19:19.976Z,23.21
2023-05-20T04:21:46.576Z,23.31
2023-05-20T04:24:13.066Z,23.25
2023-05-20T04:26:39.632Z,23.20
2023-05-20T04:29:06.214Z,23.28
2023-05-20T04:31:32.925Z,23.29
2023-05-20T04:33:59.569Z,23.28
2023-05-20T04:36:26.209Z,23.32
2023-05-20T04:38:52.682Z,23.28
2023-05-20T04:41:19.298Z,23.30
2023-05-20T04:43:45.788Z,23.33
2023-05-20T04:46:12.402Z,23.18
2023-05-20T04:48:39.049Z,23.16
2023-05-20T04:51:05.650Z,23.24
2023-05-20T04:53:32.155Z,23.18
2023-05-20T04:55:58.648Z,23.43
2023-05-20T04:58:25.255Z,23.47
2023-05-20T05:00:51.893Z,23.39
2023-05-20T05:03:18.410Z,23.70
2023-05-20T05:05:44.964Z,23.51
2023-05-20T05:08:11.468Z,23.79
2023-05-20T05:10:38.048Z,23.86
2023-05-20T05:13:04.644Z,23.91
2023-05-20T05:15:31.325Z,23.90
2023-05-20T05:17:58.021Z,23.90
2023-05-20T05:20:24.613Z,23.96
2023-05-20T05:22:51.139Z,24.03
2023-05-20T05:25:17.612Z,23.98
2023-05-20T05:27:44.123Z,23.83
2023-05-20T05:30:10.629Z,23.64
2023-05-20T05:32:37.215Z,23.48
2023-05-20T05:35:05.484Z,23.72
2023-05-20T05:37:33.187Z,23.48
2023-05-20T05:39:59.812Z,23.56
2023-05-20T05:42:26.329Z,23.45
2023-05-20T05:44:52.877Z,23.42
2023-05-20T05:47:19.441Z,23.45
2023-05-20T05:49:46.031Z,23.57
2023-05-20T05:52:12.505Z,23.91
2023-05-20T05:54:39.014Z,23.94
2023-05-20T05:57:08.616Z,24.07
2023-05-20T05:59:35.384Z,24.18
2023-05-20T06:02:01.990Z,24.15
2023-05-20T06:04:28.613Z,24.16
2023-05-20T06:06:55.306Z,24.28
2023-05-20T06:09:21.861Z,24.22
2023-05-20T06:11:48.387Z,24.29
2023-05-20T06:14:14.878Z,24.27
2023-05-20T06:16:41.467Z,24.33
2023-05-20T06:19:08.033Z,24.25
2023-05-20T06:21:34.690Z,24.34
2023-05-20T06:24:01.262Z,24.37
2023-05-20T06:26:27.729Z,24.27
2023-05-20T06:28:54.297Z,24.37
2023-05-20T06:31:20.872Z,24.29
2023-05-20T06:33:47.436Z,24.29
2023-05-20T06:36:16.895Z,24.36
2023-05-20T06:38:43.507Z,24.21
2023-05-20T06:41:10.046Z,24.14
2023-05-20T06:43:36.564Z,24.24
2023-05-20T06:46:03.145Z,24.13
2023-05-20T06:48:29.816Z,24.04
2023-05-20T06:50:56.305Z,24.28
2023-05-20T06:53:22.771Z,24.47
2023-05-20T06:55:49.261Z,24.43
2023-05-20T06:58:15.696Z,24.43
2023-05-20T07:00:42.279Z,24.45
2023-05-20T07:03:08.824Z,24.46
2023-05-20T07:05:35.545Z,24.40
2023-05-20T07:08:05.097Z,24.39
2023-05-20T07:10:31.752Z,24.41
2023-05-20T07:12:58.368Z,24.36
2023-05-20T07:15:24.849Z,24.33
2023-05-20T07:17:51.425Z,24.40
2023-05-20T07:20:18.033Z,24.42
2023-05-20T07:22:44.560Z,24.41
2023-05-20T07:25:11.116Z,24.45
2023-05-20T07:27:37.685Z,24.42
2023-05-20T07:30:04.232Z,24.43
2023-05-20T07:32:30.905Z,24.47
2023-05-20T07:34:57.589Z,24.46
2023-05-20T07:37:24.147Z,24.50
2023-05-20T07:39:50.656Z,24.44
2023-05-20T07:42:17.135Z,24.48
2023-05-20T07:44:43.694Z,24.43
2023-05-20T07:47:10.193Z,24.51
2023-05-20T07:49:36.715Z,24.51
2023-05-20T07:52:03.353Z,24.41
2023-05-20T07:54:29.897Z,24.53
2023-05-20T07:56:56.465Z,24.48
2023-05-20T07:59:23.034Z,24.52
2023-05-20T08:01:49.631Z,24.35
2023-05-20T08:04:16.273Z,24.39
2023-05-20T08:06:42.868Z,24.39
2023-05-20T08:09:09.370Z,24.23
2023-05-20T08:11:35.907Z,24.24
2023-05-20T08:14:02.430Z,24.14
2023-05-20T08:16:29.021Z,24.41
2023-05-20T08:18:55.632Z,24.23
2023-05-20T08:21:22.122Z,24.27
2023-05-20T08:23:48.610Z,24.31
2023-05-20T08:26:15.160Z,24.17
2023-05-20T08:28:41.625Z,24.06
2023-05-20T08:31:08.285Z,24.12
2023-05-20T08:33:34.880Z,24.34
2023-05-20T08:36:01.442Z,24.01
2023-05-20T08:38:27.979Z,24.04
2023-05-20T08:40:54.509Z,24.27
2023-05-20T08:43:21.115Z,24.24
2023-05-20T08:45:47.746Z,24.07
2023-05-20T08:48:14.299Z,24.41
2023-05-20T08:50:40.902Z,24.50
2023-05-20T08:53:07.441Z,24.54
2023-05-20T08:55:34.171Z,24.55
2023-05-20T08:58:00.838Z,24.51
2023-05-20T09:00:27.463Z,24.37
2023-05-20T09:02:54.060Z,24.46
2023-05-20T09:05:20.813Z,24.37
2023-05-20T09:07:47.398Z,24.24
2023-05-20T09:10:13.950Z,24.34
2023-05-20T09:12:40.549Z,24.35
2023-05-20T09:15:07.157Z,24.44
2023-05-20T09:17:33.812Z,24.34
2023-05-20T09:20:00.363Z,24.36
2023-05-20T09:22:26.911Z,24.27
2023-05-20T09:24:53.502Z,24.46
2023-05-20T09:27:20.094Z,24.45
2023-05-20T09:29:46.676Z,24.60
2023-05-20T09:32:13.319Z,24.57
2023-05-20T09:34:39.973Z,24.22
2023-05-20T09:37:06.562Z,24.45
2023-05-20T09:39:33.214Z,24.42
2023-05-20T09:42:00.261Z,24.46
2023-05-20T09:44:27.991Z,24.39
2023-05-20T09:46:54.598Z,24.34
2023-05-20T09:49:21.187Z,24.47
2023-05-20T09:51:47.787Z,24.33
2023-05-20T09:54:14.328Z,24.22
2023-05-20T09:56:40.918Z,24.47
2023-05-20T09:59:07.526Z,24.51
2023-05-20T10:01:34.107Z,24.43
2023-05-20T10:04:00.690Z,24.51
2023-05-20T10:06:27.300Z,24.46
2023-05-20T10:08:55.735Z,24.46
2023-05-20T10:11:23.670Z,24.50
2023-05-20T10:13:50.173Z,24.77
2023-05-20T10:16:16.795Z,24.83
2023-05-20T10:18:43.376Z,24.69
2023-05-20T10:21:09.932Z,24.83
2023-05-20T10:23:36.513Z,24.84
2023-05-20T10:26:03.022Z,24.79
2023-05-20T10:28:29.653Z,24.75
2023-05-20T10:30:56.309Z,24.77
2023-05-20T10:33:22.961Z,24.77
2023-05-20T10:35:49.576Z,24.78
2023-05-20T10:38:16.193Z,24.72
2023-05-20T10:40:42.685Z,24.72
2023-05-20T10:43:09.276Z,24.71
2023-05-20T10:45:35.811Z,24.68
2023-05-20T10:48:02.354Z,24.71
2023-05-20T10:50:28.938Z,24.69
2023-05-20T10:52:55.689Z,24.70
2023-05-20T10:55:22.218Z,24.66
2023-05-20T10:57:48.787Z,24.63
2023-05-20T11:00:15.473Z,24.63
2023-05-20T11:02:42.186Z,24.70
2023-05-20T11:05:08.812Z,24.72
2023-05-20T11:07:35.427Z,24.75
2023-05-20T11:10:02.017Z,24.84
2023-05-20T11:12:28.562Z,24.79
2023-05-20T11:14:55.183Z,24.78
2023-05-20T11:17:21.906Z,24.83
2023-05-20T11:19:48.444Z,24.78
2023-05-20T11:22:15.031Z,24.79
2023-05-20T11:24:41.561Z,24.74
2023-05-20T11:27:08.171Z,24.73
2023-05-20T11:29:34.658Z,24.72
2023-05-20T11:32:01.232Z,24.78
2023-05-20T11:34:29.304Z,24.75
2023-05-20T11:36:56.639Z,24.81
2023-05-20T11:39:23.184Z,24.79
2023-05-20T11:41:49.800Z,24.78
2023-05-20T11:44:16.341Z,24.80
2023-05-20T11:46:43.017Z,24.76
2023-05-20T11:49:09.727Z,24.72
2023-05-20T11:51:36.227Z,24.74
2023-05-20T11:54:02.751Z,24.74
2023-05-20T11:56:29.362Z,24.77
2023-05-20T11:58:55.922Z,24.82
2023-05-20T12:01:23.320Z,24.83
2023-05-20T12:03:50.432Z,24.79
2023-05-20T12:06:17.302Z,24.82
2023-05-20T12:08:43.964Z,24.89
2023-05-20T12:11:10.582Z,24.90
2023-05-20T12:13:37.249Z,24.85
2023-05-20T12:16:03.868Z,24.92
2023-05-20T12:18:30.483Z,24.87
2023-05-20T12:20:57.088Z,24.87
2023-05-20T12:23:23.651Z,24.85
2023-05-20T12:25:50.239Z,24.93
2023-05-20T12:28:16.778Z,24.86
2023-05-20T12:30:43.369Z,24.93
2023-05-20T12:33:11.006Z,24.92
2023-05-20T12:35:37.591Z,24.87
2023-05-20T12:38:04.103Z,24.91
2023-05-20T12:40:30.621Z,24.88
2023-05-20T12:42:57.161Z,24.85
2023-05-20T12:45:23.752Z,24.90
2023-05-20T12:47:50.442Z,24.80
2023-05-20T12:50:17.036Z,24.87
2023-05-20T12:52:43.599Z,24.81
2023-05-20T12:55:10.096Z,24.75
2023-05-20T12:57:36.722Z,24.75
2023-05-20T13:00:03.363Z,24.73
2023-05-20T13:02:30.076Z,24.74
2023-05-20T13:04:56.739Z,24.69
2023-05-20T13:07:23.298Z,24.69
2023-05-20T13:09:49.908Z,24.69
2023-05-20T13:12:16.508Z,24.69
2023-05-20T13:14:43.131Z,24.71
2023-05-20T13:17:09.842Z,24.68
2023-05-20T13:19:36.599Z,24.67
2023-05-20T13:22:03.228Z,24.67
2023-05-20T13:24:29.911Z,24.66
2023-05-20T13:26:56.433Z,24.65
2023-05-20T13:29:23.028Z,24.69
2023-05-20T13:31:49.656Z,24.66
2023-05-20T13:34:16.209Z,24.62
2023-05-20T13:36:42.801Z,24.68
2023-05-20T13:39:09.523Z,24.67
2023-05-20T13:41:36.106Z,24.62
2023-05-20T13:44:02.683Z,24.59
2023-05-20T13:46:29.326Z,24.60
2023-05-20T13:48:55.890Z,24.62
2023-05-20T13:51:22.440Z,24.62
2023-05-20T13:53:49.065Z,24.65
2023-05-20T13:56:15.678Z,24.59
2023-05-20T13:58:42.242Z,24.63
2023-05-20T14:01:08.904Z,24.57
2023-05-20T14:03:35.494Z,24.60
2023-05-20T14:06:02.185Z,24.60
2023-05-20T14:08:28.719Z,24.61
2023-05-20T14:10:55.277Z,24.63
2023-05-20T14:13:21.877Z,24.57
2023-05-20T14:15:48.540Z,24.61
2023-05-20T14:18:15.229Z,24.54
2023-05-20T14:20:41.770Z,24.61
2023-05-20T14:23:08.406Z,24.53
2023-05-20T14:25:35.051Z,24.50
2023-05-20T14:28:01.684Z,24.53
2023-05-20T14:30:28.312Z,24.59
2023-05-20T14:32:55.059Z,24.52
2023-05-20T14:35:21.830Z,24.55
2023-05-20T14:37:48.372Z,24.51
2023-05-20T14:40:14.990Z,24.54
2023-05-20T14:42:41.573Z,24.48
2023-05-20T14:45:08.171Z,24.51
2023-05-20T14:47:34.805Z,24.54
2023-05-20T14:50:01.344Z,24.42
2023-05-20T14:52:27.887Z,24.38
2023-05-20T14:54:54.554Z,24.40
2023-05-20T14:57:21.084Z,24.51
2023-05-20T14:59:47.593Z,24.26
2023-05-20T15:02:15.665Z,24.17
2023-05-20T15:04:42.513Z,24.12
2023-05-20T15:07:09.080Z,24.12
2023-05-20T15:09:35.740Z,24.27
2023-05-20T15:12:02.355Z,24.17
2023-05-20T15:14:28.961Z,24.16
2023-05-20T15:16:55.556Z,24.10
2023-05-20T15:19:22.290Z,24.07
2023-05-20T15:21:48.971Z,24.23
2023-05-20T15:24:15.601Z,24.21
2023-05-20T15:26:42.187Z,24.18
2023-05-20T15:29:08.792Z,23.94
2023-05-20T15:31:35.391Z,24.09
2023-05-20T15:34:02.041Z,24.03
2023-05-20T15:36:28.699Z,23.96
2023-05-20T15:38:55.309Z,23.90
2023-05-20T15:41:21.959Z,24.04
2023-05-20T15:43:48.532Z,23.94
2023-05-20T15:46:15.031Z,23.95
2023-05-20T15:48:41.675Z,24.09
2023-05-20T15:51:08.272Z,23.90
2023-05-20T15:53:36.122Z,23.86
2023-05-20T15:56:03.412Z,23.85
2023-05-20T15:58:30.116Z,23.85
2023-05-20T16:00:56.747Z,23.91
2023-05-20T16:03:23.471Z,23.88
2023-05-20T16:05:50.172Z,23.94
2023-05-20T16:08:16.738Z,23.80
2023-05-20T16:10:43.289Z,23.78
2023-05-20T16:13:09.932Z,23.82
2023-05-20T16:15:36.600Z,23.86
2023-05-20T16:18:03.290Z,23.75
2023-05-20T16:20:29.896Z,23.88
2023-05-20T16:22:56.408Z,23.95
2023-05-20T16:25:23.042Z,23.97
2023-05-20T16:27:49.581Z,23.78
2023-05-20T16:30:16.100Z,23.85
2023-05-20T16:32:42.665Z,23.76
2023-05-20T16:35:09.312Z,23.80
2023-05-20T16:37:35.926Z,23.77
2023-05-20T16:40:02.527Z,23.85
2023-05-20T16:42:29.098Z,23.85
2023-05-20T16:44:55.706Z,23.83
2023-05-20T16:47:22.370Z,23.76
2023-05-20T16:49:49.037Z,23.73
2023-05-20T16:52:15.677Z,23.80
2023-05-20T16:54:42.257Z,23.78
2023-05-20T16:57:08.852Z,23.70
2023-05-20T16:59:35.465Z,23.72
2023-05-20T17:02:02.109Z,23.65
2023-05-20T17:04:28.828Z,23.83
2023-05-20T17:06:55.399Z,23.96
2023-05-20T17:09:21.985Z,23.90
2023-05-20T17:11:48.497Z,23.82
2023-05-20T17:14:15.088Z,24.10
2023-05-20T17:16:41.603Z,24.01
2023-05-20T17:19:08.263Z,24.12
2023-05-20T17:21:34.837Z,23.97
2023-05-20T17:24:01.319Z,23.95
2023-05-20T17:26:27.827Z,23.91
2023-05-20T17:28:54.365Z,23.84
2023-05-20T17:31:20.877Z,23.92
2023-05-20T17:33:47.518Z,23.92
2023-05-20T17:36:14.124Z,23.88
2023-05-20T17:38:40.711Z,23.77
2023-05-20T17:41:07.292Z,23.94
2023-05-20T17:43:33.851Z,23.91
2023-05-20T17:46:00.363Z,23.89
2023-05-20T17:48:26.963Z,23.83
2023-05-20T17:50:53.552Z,24.16
2023-05-20T17:53:21.736Z,24.21
2023-05-20T17:55:48.533Z,24.18
2023-05-20T17:58:14.997Z,24.40
2023-05-20T18:00:41.552Z,24.23
2023-05-20T18:03:08.121Z,24.23
2023-05-20T18:05:34.713Z,24.23
2023-05-20T18:08:01.431Z,24.34
2023-05-20T18:10:27.967Z,24.22
2023-05-20T18:12:54.559Z,24.13
2023-05-20T18:15:21.116Z,24.00
2023-05-20T18:17:47.676Z,24.19
2023-05-20T18:20:15.688Z,24.06
2023-05-20T18:22:42.209Z,23.95
2023-05-20T18:25:08.711Z,23.87
2023-05-20T18:27:35.247Z,23.82
2023-05-20T18:30:01.707Z,23.97
2023-05-20T18:32:28.263Z,23.93
2023-05-20T18:34:54.818Z,23.91
2023-05-20T18:37:21.344Z,23.81
2023-05-20T18:39:47.815Z,23.78
2023-05-20T18:42:14.472Z,23.76
2023-05-20T18:44:40.992Z,23.76
2023-05-20T18:47:07.600Z,23.95
2023-05-20T18:49:34.187Z,23.83
2023-05-20T18:52:00.653Z,23.80
2023-05-20T18:54:27.355Z,23.70
2023-05-20T18:56:53.823Z,23.74
2023-05-20T18:59:20.438Z,23.78
2023-05-20T19:01:47.054Z,23.75
2023-05-20T19:04:13.616Z,23.79
2023-05-20T19:06:40.227Z,23.80
2023-05-20T19:09:06.867Z,23.77
2023-05-20T19:11:33.474Z,23.69
2023-05-20T19:13:59.999Z,23.66
2023-05-20T19:16:26.602Z,23.78
2023-05-20T19:18:53.215Z,23.66
2023-05-20T19:21:19.755Z,23.71
2023-05-20T19:23:46.294Z,23.67
2023-05-20T19:26:12.920Z,23.63
2023-05-20T19:28:39.454Z,23.91
2023-05-20T19:31:06.107Z,23.80
2023-05-20T19:33:35.752Z,23.76
2023-05-20T19:36:02.380Z,23.80
2023-05-20T19:38:28.967Z,23.74
2023-05-20T19:40:55.595Z,23.76
2023-05-20T19:43:22.082Z,23.72
2023-05-20T19:45:48.703Z,23.76
2023-05-20T19:48:15.295Z,23.71
2023-05-20T19:50:41.856Z,23.74
2023-05-20T19:53:08.403Z,23.70
2023-05-20T19:55:35.384Z,23.72
2023-05-20T19:58:02.409Z,23.77
2023-05-20T20:00:28.978Z,23.75
2023-05-20T20:02:55.611Z,23.72
2023-05-20T20:05:25.279Z,23.66
2023-05-20T20:07:51.845Z,23.69
2023-05-20T20:10:18.437Z,23.62
2023-05-20T20:12:45.080Z,23.67
2023-05-20T20:15:11.660Z,23.57
2023-05-20T20:17:38.299Z,23.61
2023-05-20T20:20:04.902Z,23.74
2023-05-20T20:22:31.617Z,23.61
2023-05-20T20:24:58.288Z,23.68
2023-05-20T20:27:24.788Z,23.68
2023-05-20T20:29:51.491Z,23.73
2023-05-20T20:32:18.389Z,23.71
2023-05-20T20:34:45.173Z,23.67
2023-05-20T20:37:11.749Z,23.56
2023-05-20T20:39:38.261Z,23.62
2023-05-20T20:42:04.793Z,23.69
2023-05-20T20:44:31.431Z,23.65
2023-05-20T20:46:58.070Z,23.68
2023-05-20T20:49:26.335Z,23.67
2023-05-20T20:51:54.387Z,23.66
2023-05-20T20:54:20.934Z,23.68
2023-05-20T20:56:47.521Z,23.69
2023-05-20T20:59:14.106Z,23.67
2023-05-20T21:01:40.655Z,23.61
2023-05-20T21:04:07.228Z,23.73
2023-05-20T21:06:33.861Z,23.68
2023-05-20T21:09:00.468Z,23.65
2023-05-20T21:11:26.978Z,23.68
2023-05-20T21:13:53.570Z,23.66
2023-05-20T21:16:20.170Z,23.64
2023-05-20T21:18:46.719Z,23.54
2023-05-20T21:21:13.287Z,23.63
2023-05-20T21:23:39.854Z,23.70
2023-05-20T21:26:06.389Z,23.69
2023-05-20T21:28:32.967Z,23.69
2023-05-20T21:30:59.581Z,23.64
2023-05-20T21:33:26.229Z,23.68
2023-05-20T21:35:52.817Z,23.62
2023-05-20T21:38:19.396Z,23.64
2023-05-20T21:40:45.960Z,23.62
2023-05-20T21:43:12.512Z,23.71
2023-05-20T21:45:39.134Z,23.63
2023-05-20T21:48:05.770Z,23.64
2023-05-20T21:50:32.354Z,23.62
2023-05-20T21:52:58.902Z,23.68
2023-05-20T21:55:25.464Z,23.65
2023-05-20T21:57:52.033Z,23.59
2023-05-20T22:00:18.591Z,23.58
2023-05-20T22:02:45.253Z,23.59
2023-05-20T22:05:11.894Z,23.69
2023-05-20T22:07:38.495Z,23.68
2023-05-20T22:10:05.145Z,23.69
2023-05-20T22:12:31.760Z,23.63
2023-05-20T22:14:58.316Z,23.62
2023-05-20T22:17:24.979Z,23.57
2023-05-20T22:19:51.735Z,23.63
2023-05-20T22:22:18.301Z,23.71
2023-05-20T22:24:44.831Z,23.70
2023-05-20T22:27:11.392Z,23.64
2023-05-20T22:29:37.956Z,23.62
2023-05-20T22:32:04.564Z,23.55
2023-05-20T22:34:31.081Z,23.54
2023-05-20T22:36:57.631Z,23.58
2023-05-20T22:39:24.197Z,23.57
2023-05-20T22:41:50.686Z,23.58
2023-05-20T22:44:17.266Z,23.66
2023-05-20T22:46:43.861Z,23.60
2023-05-20T22:49:10.422Z,23.54
2023-05-20T22:51:37.018Z,23.54
2023-05-20T22:54:03.565Z,23.54
2023-05-20T22:56:33.291Z,23.50
2023-05-20T22:58:59.739Z,23.59
2023-05-20T23:01:26.358Z,23.67
2023-05-20T23:03:52.969Z,23.58
2023-05-20T23:06:19.513Z,23.60
2023-05-20T23:08:46.095Z,23.60
2023-05-20T23:11:12.688Z,23.59
2023-05-20T23:13:39.236Z,23.60
2023-05-20T23:16:05.900Z,23.50
2023-05-20T23:18:32.570Z,23.59
2023-05-20T23:20:59.152Z,23.55
2023-05-20T23:23:31.165Z,23.53
2023-05-20T23:25:58.792Z,23.49
2023-05-20T23:28:25.540Z,23.55
2023-05-20T23:30:52.158Z,23.58
2023-05-20T23:33:22.883Z,23.50
2023-05-20T23:35:51.569Z,23.60
2023-05-20T23:38:18.294Z,23.70
2023-05-20T23:40:44.948Z,23.61
2023-05-20T23:43:11.423Z,23.54
2023-05-20T23:45:38.037Z,23.58
2023-05-20T23:48:04.749Z,23.67
2023-05-20T23:50:31.377Z,23.57
2023-05-20T23:52:58.001Z,23.57
2023-05-20T23:55:24.544Z,23.56
2023-05-20T23:57:51.095Z,23.59
